• Join FlightAware (Why Join?)
  • Login
  • US Flag 
12:49AM EDT


 

Airport Tracker/Info


-or-


 

Live Flight TrackerFlight Track Log ✈ VH-NAN ✈ 15-May-2013 ✈ YPJT / JAD - YSHK / DNM

Flight Track Log - Related Links

Times and Time Zones

All times are in EDT time to prevent confusion due to time zone crossing. See the VH-NAN flight status page for this flight to view local times or setup timezone preferences in your user account.

Time Position Orientation Groundspeed Altitude Reporting Facility
EDT Latitude Longitude Course Direction KTS MPH feet Rate Location/Type
07:01PM -32.0419 115.7531 344° North 109 125 2,100  Level Aus ATC (RADAR)
07:01PM -32.0294 115.7488 344° North 112 129 2,000 360 Descending Aus ATC (RADAR)
07:02PM -31.9975 115.7443 353° North 89 102 2,700 540 Climbing Aus ATC (RADAR)
07:03PM -31.9884 115.7417 346° North 83 96 2,900 480 Climbing Aus ATC (RADAR)
07:03PM -31.9768 115.7369 341° North 77 89 3,200 420 Climbing Aus ATC (RADAR)
07:04PM -31.9615 115.7303 340° North 78 90 3,500 360 Climbing Aus ATC (RADAR)
07:05PM -31.9494 115.7257 342° North 78 90 3,700 420 Climbing Aus ATC (RADAR)
07:05PM -31.9350 115.7172 334° Northwest 78 90 4,100 480 Climbing Aus ATC (RADAR)
07:06PM -31.9254 115.7118 334° Northwest 75 86 4,300 420 Climbing Aus ATC (RADAR)
07:06PM -31.9132 115.7083 346° North 77 89 4,600 360 Climbing Aus ATC (RADAR)
07:08PM -31.8871 115.6957 338° Northwest 91 105 5,000 420 Climbing Aus ATC (RADAR)
07:08PM -31.8777 115.6911 337° Northwest 88 101 5,300 480 Climbing Aus ATC (RADAR)
07:09PM -31.8643 115.6855 340° North 90 104 5,500 420 Climbing Aus ATC (RADAR)
07:09PM -31.8450 115.6779 342° North 86 99 5,900 420 Climbing Aus ATC (RADAR)
07:10PM -31.8317 115.6725 341° North 85 98 6,100 300 Climbing Aus ATC (RADAR)
07:11PM -31.8099 115.6663 346° North 93 107 6,400 120 Climbing Aus ATC (RADAR)
07:11PM -31.8024 115.6631 340° North 105 121 6,300 -60 Descending Aus ATC (RADAR)
07:13PM -31.7532 115.6387 337° Northwest 135 155 6,300  Level Aus ATC (RADAR)
07:13PM -31.7350 115.6312 341° North 137 158 6,300  Level Aus ATC (RADAR)
07:14PM -31.7225 115.6255 339° North 140 161 6,300  Level Aus ATC (RADAR)
07:14PM -31.7014 115.6157 338° Northwest 139 160 6,300 60 Level Aus ATC (RADAR)
07:15PM -31.6746 115.6011 335° Northwest 139 160 6,400  Climbing Aus ATC (RADAR)
07:15PM -31.6528 115.5905 337° Northwest 144 166 6,300 -120 Descending Aus ATC (RADAR)
07:16PM -31.6254 115.5774 338° Northwest 140 161 6,300  Level Aus ATC (RADAR)
07:17PM -31.6098 115.5706 340° North 141 162 6,300  Level Aus ATC (RADAR)
07:18PM -31.5525 115.5412 336° Northwest 140 161 6,300  Level Aus ATC (RADAR)
07:19PM -31.5374 115.5330 335° Northwest 140 161 6,300  Level Aus ATC (RADAR)
07:19PM -31.5130 115.5206 337° Northwest 142 163 6,300  Level Aus ATC (RADAR)
07:20PM -31.4914 115.5130 343° North 135 155 6,300  Level Aus ATC (RADAR)
07:23PM -31.3430 115.4552 342° North 6,500 60 Climbing Aus ATC (Calculated)
07:25PM -31.2929 115.4357 342° North  Level FlightAware Approximate
07:26PM -31.2554 115.4211 342° North  Level FlightAware Approximate
07:27PM -31.2179 115.4066 342° North  Level FlightAware Approximate
07:28PM -31.1804 115.3920 342° North  Level FlightAware Approximate
07:29PM -31.1428 115.3775 342° North  Level FlightAware Approximate
07:30PM -31.1053 115.3629 342° North  Level FlightAware Approximate
07:31PM -31.0678 115.3484 342° North  Level FlightAware Approximate
07:32PM -31.0302 115.3339 342° North  Level FlightAware Approximate
07:33PM -30.9927 115.3194 342° North  Level FlightAware Approximate
07:34PM -30.9552 115.3049 342° North  Level FlightAware Approximate
07:35PM -30.9176 115.2905 342° North  Level FlightAware Approximate
07:36PM -30.8801 115.2760 342° North  Level FlightAware Approximate
07:37PM -30.8425 115.2615 342° North  Level FlightAware Approximate
07:38PM -30.8050 115.2471 342° North  Level FlightAware Approximate
07:39PM -30.7674 115.2327 342° North  Level FlightAware Approximate
07:40PM -30.7299 115.2182 342° North  Level FlightAware Approximate
07:41PM -30.6923 115.2038 342° North  Level FlightAware Approximate
07:42PM -30.6548 115.1895 342° North  Level FlightAware Approximate
07:43PM -30.6172 115.1751 342° North  Level FlightAware Approximate
07:43PM -30.5633 115.1545 342° North 6,500  Level Aus ATC (Calculated)
07:45PM -30.5019 115.1310 342° North  Level FlightAware Approximate
07:46PM -30.4644 115.1167 342° North  Level FlightAware Approximate
07:47PM -30.4268 115.1023 342° North  Level FlightAware Approximate
07:48PM -30.3893 115.0880 342° North  Level FlightAware Approximate
07:49PM -30.3517 115.0737 342° North  Level FlightAware Approximate
07:50PM -30.3141 115.0594 342° North  Level FlightAware Approximate
07:51PM -30.2766 115.0451 342° North  Level FlightAware Approximate
07:51PM -30.2864 115.0834 235° Southwest 6,500  Level Aus ATC (Calculated)
07:53PM -30.3284 115.0130 235° Southwest  Level FlightAware Approximate
07:54PM -30.3059 115.0507 55° Northeast  Level FlightAware Approximate
07:55PM -30.2834 115.0884 55° Northeast  Level FlightAware Approximate
07:56PM -30.2959 115.0536 349° North  Level FlightAware Approximate
07:57PM -30.2572 115.0445 349° North  Level FlightAware Approximate
07:58PM -30.2184 115.0354 349° North  Level FlightAware Approximate
07:59PM -30.1796 115.0263 349° North  Level FlightAware Approximate
08:00PM -30.1409 115.0173 349° North  Level FlightAware Approximate
08:01PM -30.1021 115.0082 349° North  Level FlightAware Approximate
08:02PM -30.0634 114.9992 349° North  Level FlightAware Approximate
08:03PM -30.0246 114.9902 349° North  Level FlightAware Approximate
08:04PM -29.9858 114.9811 349° North  Level FlightAware Approximate
08:05PM -29.9471 114.9721 349° North  Level FlightAware Approximate
08:06PM -29.9083 114.9631 349° North  Level FlightAware Approximate
08:07PM -29.8696 114.9541 349° North  Level FlightAware Approximate
08:08PM -29.8308 114.9451 349° North  Level FlightAware Approximate
08:09PM -29.7920 114.9361 349° North  Level FlightAware Approximate
08:10PM -29.7533 114.9271 349° North  Level FlightAware Approximate
08:11PM -29.7145 114.9181 349° North  Level FlightAware Approximate
08:12PM -29.6758 114.9091 349° North  Level FlightAware Approximate
08:13PM -29.6370 114.9002 349° North  Level FlightAware Approximate
08:14PM -29.5982 114.8912 349° North  Level FlightAware Approximate
08:14PM -29.3515 114.8463 348° North 6,500  Level Aus ATC (Calculated)
08:16PM -29.2884 114.8305 348° North  Level FlightAware Approximate
08:17PM -29.2498 114.8208 348° North  Level FlightAware Approximate
08:18PM -29.2112 114.8111 348° North  Level FlightAware Approximate
08:19PM -29.1725 114.8014 348° North  Level FlightAware Approximate
08:20PM -29.1339 114.7917 348° North  Level FlightAware Approximate
08:21PM -29.0953 114.7821 348° North  Level FlightAware Approximate
08:22PM -29.0566 114.7724 348° North  Level FlightAware Approximate
08:23PM -29.0180 114.7628 348° North  Level FlightAware Approximate
08:24PM -28.9794 114.7532 348° North  Level FlightAware Approximate
08:25PM -28.9408 114.7435 348° North  Level FlightAware Approximate
08:26PM -28.9021 114.7339 348° North  Level FlightAware Approximate
08:27PM -28.8635 114.7243 348° North  Level FlightAware Approximate
08:28PM -28.8249 114.7147 348° North  Level FlightAware Approximate
08:29PM -28.7862 114.7051 348° North  Level FlightAware Approximate
08:29PM -28.7903 114.7061 360° North  Level Aus ATC (Calculated)
08:29PM -28.7903 114.7061 180° South  Level Aus ATC (Calculated)
08:31PM -28.8681 114.7061 180° South  Level FlightAware Approximate
08:32PM -28.9076 114.7061 180° South  Level FlightAware Approximate
08:33PM -28.8681 114.7061 North  Level FlightAware Approximate
08:34PM -28.8307 114.6915 341° North  Level Estimated
08:35PM -28.7932 114.6769 341° North  Level FlightAware Approximate
08:36PM -28.7558 114.6623 341° North  Level FlightAware Approximate
08:37PM -28.7184 114.6477 341° North  Level FlightAware Approximate
08:38PM -28.6810 114.6331 341° North  Level FlightAware Approximate
08:39PM -28.6436 114.6186 341° North  Level FlightAware Approximate
08:40PM -28.6061 114.6040 341° North  Level FlightAware Approximate
08:41PM -28.5687 114.5895 341° North  Level FlightAware Approximate
08:42PM -28.5313 114.5750 341° North  Level FlightAware Approximate
08:43PM -28.4939 114.5604 341° North  Level FlightAware Approximate
08:44PM -28.4564 114.5459 341° North  Level FlightAware Approximate
08:45PM -28.4190 114.5314 341° North  Level FlightAware Approximate
08:46PM -28.3816 114.5170 341° North  Level FlightAware Approximate
08:47PM -28.3441 114.5025 341° North  Level FlightAware Approximate
08:48PM -28.3067 114.4880 341° North  Level FlightAware Approximate
08:49PM -28.2693 114.4735 341° North  Level FlightAware Approximate
08:50PM -28.2318 114.4591 341° North  Level FlightAware Approximate
08:51PM -28.1944 114.4446 341° North  Level FlightAware Approximate
08:52PM -28.1569 114.4302 341° North  Level FlightAware Approximate
08:53PM -28.1195 114.4158 341° North  Level FlightAware Approximate
08:54PM -28.0821 114.4014 341° North  Level FlightAware Approximate
08:55PM -28.0446 114.3870 341° North  Level FlightAware Approximate
08:56PM -28.0072 114.3727 341° North  Level FlightAware Approximate
08:57PM -27.9697 114.3583 341° North  Level FlightAware Approximate
08:58PM -27.9323 114.3439 341° North  Level FlightAware Approximate
08:58PM -27.6149 114.2404 164° South  Level Aus ATC (Calculated)
08:59PM -27.8948 114.3295 341° North  Level FlightAware Approximate
08:59PM -27.6149 114.2404 341° North  Level Aus ATC (Calculated)
09:00PM -27.5732 114.2241 341° North  Level FlightAware Approximate
09:00PM -27.5244 114.2050 189° South  Level Aus ATC (Calculated)
09:00PM -27.5244 114.2050 161° South  Level Aus ATC (Calculated)
09:01PM -27.5632 114.2202 341° North  Level FlightAware Approximate
09:02PM -27.4827 114.1887 341° North  Level FlightAware Approximate
09:03PM -27.4454 114.1741 341° North  Level FlightAware Approximate
09:04PM -27.4080 114.1595 341° North  Level FlightAware Approximate
09:05PM -27.3706 114.1450 341° North  Level FlightAware Approximate
09:06PM -27.3333 114.1304 341° North  Level FlightAware Approximate
09:07PM -27.2959 114.1158 341° North  Level FlightAware Approximate
09:08PM -27.2585 114.1013 341° North  Level FlightAware Approximate
09:09PM -27.2212 114.0868 341° North  Level FlightAware Approximate
09:10PM -27.1838 114.0723 341° North  Level FlightAware Approximate
09:11PM -27.1464 114.0577 341° North  Level FlightAware Approximate
09:12PM -27.1090 114.0432 341° North  Level FlightAware Approximate
09:13PM -27.0717 114.0287 341° North  Level FlightAware Approximate
09:14PM -27.0343 114.0143 341° North  Level FlightAware Approximate
09:15PM -26.9969 113.9998 341° North  Level FlightAware Approximate
09:16PM -26.9595 113.9853 341° North  Level FlightAware Approximate
09:17PM -26.9221 113.9709 341° North  Level FlightAware Approximate
09:18PM -26.8848 113.9565 341° North  Level FlightAware Approximate
09:19PM -26.8474 113.9420 341° North  Level FlightAware Approximate
09:20PM -26.8100 113.9276 341° North  Level FlightAware Approximate
09:21PM -26.7726 113.9132 341° North  Level FlightAware Approximate
09:22PM -26.7352 113.8988 341° North  Level FlightAware Approximate
09:23PM -26.6978 113.8844 341° North  Level FlightAware Approximate
09:24PM -26.6604 113.8700 341° North  Level FlightAware Approximate
09:25PM -26.6230 113.8556 341° North  Level FlightAware Approximate
09:26PM -26.5856 113.8412 341° North  Level FlightAware Approximate
09:27PM -26.5482 113.8269 341° North  Level FlightAware Approximate
09:28PM -26.5108 113.8125 341° North  Level FlightAware Approximate
09:29PM -26.4734 113.7982 341° North  Level FlightAware Approximate
09:30PM -26.4360 113.7839 341° North  Level FlightAware Approximate
09:31PM -26.3986 113.7695 341° North  Level FlightAware Approximate
09:32PM -26.3612 113.7552 341° North  Level FlightAware Approximate
09:33PM -26.3238 113.7409 341° North  Level FlightAware Approximate
09:34PM -26.2864 113.7266 341° North  Level FlightAware Approximate
09:35PM -26.2490 113.7123 341° North  Level FlightAware Approximate
09:36PM -26.2116 113.6981 341° North  Level FlightAware Approximate
09:37PM -26.1742 113.6838 341° North  Level FlightAware Approximate
09:38PM -26.1368 113.6695 341° North  Level FlightAware Approximate
09:39PM -26.0994 113.6553 341° North  Level FlightAware Approximate
09:40PM -26.0619 113.6411 341° North  Level FlightAware Approximate
09:41PM -26.0245 113.6268 341° North  Level FlightAware Approximate
09:42PM -25.9871 113.6126 341° North  Level FlightAware Approximate
09:43PM -25.9497 113.5984 341° North  Level FlightAware Approximate
09:44PM -25.9123 113.5842 341° North  Level FlightAware Approximate
09:45PM -25.8939 113.5772 341° North  Level Estimated
09:46PM -25.8939 113.5772 34° Northeast  Level Estimated
09:47PM -25.8939 113.5772 34° Northeast  Level Estimated
09:48PM -25.8939 113.5772 34° Northeast  Level Estimated
09:49PM -25.8939 113.5772 34° Northeast  Level Estimated
09:50PM -25.8939 113.5772 34° Northeast  Level Estimated
09:51PM -25.8939 113.5772 341° North  Level Estimated
09:52PM -25.8939 113.5772 341° North  Level FlightAware Approximate
09:53PM -25.8939 113.5772 341° North  Level Estimated
09:54PM -25.8939 113.5772 341° North  Level Estimated
09:55PM -25.8939 113.5772 341° North  Level Estimated
09:56PM -25.8939 113.5772 341° North  Level Estimated
09:57PM -25.8939 113.5772 341° North  Level Estimated
09:58PM -25.8939 113.5772 341° North  Level Estimated
09:59PM -25.8939 113.5772 341° North  Level Estimated